sensor_id;sensor_type;location;lat;lon;timestamp;temperature;humidity
37782;DHT22;23621;50.878;4.584;2022-11-06T00:00:37;16.90;72.80
37782;DHT22;23621;50.878;4.584;2022-11-06T00:03:23;16.80;72.60
37782;DHT22;23621;50.878;4.584;2022-11-06T00:05:50;16.80;72.70
37782;DHT22;23621;50.878;4.584;2022-11-06T00:08:37;16.80;72.60
37782;DHT22;23621;50.878;4.584;2022-11-06T00:11:13;16.70;72.80
37782;DHT22;23621;50.878;4.584;2022-11-06T00:14:00;16.80;72.90
37782;DHT22;23621;50.878;4.584;2022-11-06T00:16:28;16.70;73.10
37782;DHT22;23621;50.878;4.584;2022-11-06T00:19:14;16.70;73.00
37782;DHT22;23621;50.878;4.584;2022-11-06T00:21:41;16.70;73.10
37782;DHT22;23621;50.878;4.584;2022-11-06T00:24:10;16.70;73.10
37782;DHT22;23621;50.878;4.584;2022-11-06T00:26:40;16.60;73.30
37782;DHT22;23621;50.878;4.584;2022-11-06T00:29:26;16.60;73.40
37782;DHT22;23621;50.878;4.584;2022-11-06T00:31:53;16.70;73.20
37782;DHT22;23621;50.878;4.584;2022-11-06T00:34:38;16.70;73.20
37782;DHT22;23621;50.878;4.584;2022-11-06T00:37:10;16.80;73.30
37782;DHT22;23621;50.878;4.584;2022-11-06T00:39:56;16.70;73.30
37782;DHT22;23621;50.878;4.584;2022-11-06T00:42:25;16.70;73.40
37782;DHT22;23621;50.878;4.584;2022-11-06T00:44:52;16.70;73.30
37782;DHT22;23621;50.878;4.584;2022-11-06T00:47:18;16.90;73.20
37782;DHT22;23621;50.878;4.584;2022-11-06T00:49:45;16.90;73.10
37782;DHT22;23621;50.878;4.584;2022-11-06T00:52:12;17.00;73.10
37782;DHT22;23621;50.878;4.584;2022-11-06T00:54:39;17.00;73.10
37782;DHT22;23621;50.878;4.584;2022-11-06T00:57:06;17.00;73.00
37782;DHT22;23621;50.878;4.584;2022-11-06T00:59:34;17.00;72.90
37782;DHT22;23621;50.878;4.584;2022-11-06T01:02:01;17.00;72.90
37782;DHT22;23621;50.878;4.584;2022-11-06T01:04:28;17.00;72.90
37782;DHT22;23621;50.878;4.584;2022-11-06T01:06:55;17.10;72.90
37782;DHT22;23621;50.878;4.584;2022-11-06T01:09:41;17.10;72.80
37782;DHT22;23621;50.878;4.584;2022-11-06T01:12:07;17.00;72.90
37782;DHT22;23621;50.878;4.584;2022-11-06T01:14:58;17.00;72.80
37782;DHT22;23621;50.878;4.584;2022-11-06T01:17:25;17.00;72.80
37782;DHT22;23621;50.878;4.584;2022-11-06T01:20:10;17.10;72.80
37782;DHT22;23621;50.878;4.584;2022-11-06T01:22:37;17.10;72.70
37782;DHT22;23621;50.878;4.584;2022-11-06T01:25:19;17.10;72.80
37782;DHT22;23621;50.878;4.584;2022-11-06T01:27:46;17.10;72.80
37782;DHT22;23621;50.878;4.584;2022-11-06T01:30:15;17.00;72.60
37782;DHT22;23621;50.878;4.584;2022-11-06T01:32:42;17.10;72.80
37782;DHT22;23621;50.878;4.584;2022-11-06T01:35:12;17.10;72.80
37782;DHT22;23621;50.878;4.584;2022-11-06T01:37:53;17.20;72.80
37782;DHT22;23621;50.878;4.584;2022-11-06T01:40:20;17.20;72.70
37782;DHT22;23621;50.878;4.584;2022-11-06T01:42:47;17.20;72.70
37782;DHT22;23621;50.878;4.584;2022-11-06T01:45:34;17.20;72.70
37782;DHT22;23621;50.878;4.584;2022-11-06T01:48:03;17.30;72.70
37782;DHT22;23621;50.878;4.584;2022-11-06T01:50:31;17.30;72.70
37782;DHT22;23621;50.878;4.584;2022-11-06T01:53:17;17.30;73.30
37782;DHT22;23621;50.878;4.584;2022-11-06T01:55:47;17.30;72.50
37782;DHT22;23621;50.878;4.584;2022-11-06T01:58:17;17.30;72.60
37782;DHT22;23621;50.878;4.584;2022-11-06T02:00:45;17.30;72.60
37782;DHT22;23621;50.878;4.584;2022-11-06T02:03:32;17.30;72.50
37782;DHT22;23621;50.878;4.584;2022-11-06T02:05:59;17.30;72.50
37782;DHT22;23621;50.878;4.584;2022-11-06T02:08:27;17.30;72.60
37782;DHT22;23621;50.878;4.584;2022-11-06T02:10:54;17.30;72.60
37782;DHT22;23621;50.878;4.584;2022-11-06T02:13:36;17.30;72.60
37782;DHT22;23621;50.878;4.584;2022-11-06T02:19:03;17.20;72.60
37782;DHT22;23621;50.878;4.584;2022-11-06T02:24:44;17.30;72.80
37782;DHT22;23621;50.878;4.584;2022-11-06T02:27:22;17.20;72.70
37782;DHT22;23621;50.878;4.584;2022-11-06T02:30:10;17.30;72.90
37782;DHT22;23621;50.878;4.584;2022-11-06T02:32:55;17.30;72.90
37782;DHT22;23621;50.878;4.584;2022-11-06T02:38:21;17.30;72.90
37782;DHT22;23621;50.878;4.584;2022-11-06T02:40:55;17.30;72.90
37782;DHT22;23621;50.878;4.584;2022-11-06T02:43:34;17.30;72.80
37782;DHT22;23621;50.878;4.584;2022-11-06T02:46:07;17.30;72.80
37782;DHT22;23621;50.878;4.584;2022-11-06T02:48:45;17.30;72.70
37782;DHT22;23621;50.878;4.584;2022-11-06T02:51:15;17.30;72.80
37782;DHT22;23621;50.878;4.584;2022-11-06T02:53:45;17.30;72.70
37782;DHT22;23621;50.878;4.584;2022-11-06T02:56:20;17.30;72.70
37782;DHT22;23621;50.878;4.584;2022-11-06T02:58:55;17.30;72.70
37782;DHT22;23621;50.878;4.584;2022-11-06T03:01:36;17.30;72.80
37782;DHT22;23621;50.878;4.584;2022-11-06T03:04:13;17.30;72.80
37782;DHT22;23621;50.878;4.584;2022-11-06T03:06:47;17.30;72.90
37782;DHT22;23621;50.878;4.584;2022-11-06T03:09:36;17.30;73.00
37782;DHT22;23621;50.878;4.584;2022-11-06T03:14:59;17.30;73.00
37782;DHT22;23621;50.878;4.584;2022-11-06T03:17:58;17.30;73.00
37782;DHT22;23621;50.878;4.584;2022-11-06T03:20:35;17.30;73.00
37782;DHT22;23621;50.878;4.584;2022-11-06T03:28:39;17.40;73.10
37782;DHT22;23621;50.878;4.584;2022-11-06T03:31:16;17.30;73.00
37782;DHT22;23621;50.878;4.584;2022-11-06T03:33:49;17.30;73.10
37782;DHT22;23621;50.878;4.584;2022-11-06T03:36:33;17.30;73.10
37782;DHT22;23621;50.878;4.584;2022-11-06T03:39:05;17.30;73.10
37782;DHT22;23621;50.878;4.584;2022-11-06T03:41:48;17.40;73.10
37782;DHT22;23621;50.878;4.584;2022-11-06T03:44:19;17.40;73.10
37782;DHT22;23621;50.878;4.584;2022-11-06T03:46:52;17.30;73.00
37782;DHT22;23621;50.878;4.584;2022-11-06T03:49:24;17.30;73.00
37782;DHT22;23621;50.878;4.584;2022-11-06T03:52:00;17.30;73.00
37782;DHT22;23621;50.878;4.584;2022-11-06T03:54:49;17.30;72.90
37782;DHT22;23621;50.878;4.584;2022-11-06T03:57:21;17.30;72.90
37782;DHT22;23621;50.878;4.584;2022-11-06T04:00:08;17.30;72.90
37782;DHT22;23621;50.878;4.584;2022-11-06T04:02:38;17.30;73.00
37782;DHT22;23621;50.878;4.584;2022-11-06T04:05:18;17.30;73.10
37782;DHT22;23621;50.878;4.584;2022-11-06T04:07:50;17.30;73.00
37782;DHT22;23621;50.878;4.584;2022-11-06T04:10:41;17.30;73.20
37782;DHT22;23621;50.878;4.584;2022-11-06T04:13:30;17.30;73.20
37782;DHT22;23621;50.878;4.584;2022-11-06T04:16:18;17.30;73.20
37782;DHT22;23621;50.878;4.584;2022-11-06T04:18:44;17.20;73.10
37782;DHT22;23621;50.878;4.584;2022-11-06T04:24:26;17.20;73.20
37782;DHT22;23621;50.878;4.584;2022-11-06T04:30:12;17.20;73.20
37782;DHT22;23621;50.878;4.584;2022-11-06T04:35:47;17.20;73.10
37782;DHT22;23621;50.878;4.584;2022-11-06T04:41:33;17.10;73.20
37782;DHT22;23621;50.878;4.584;2022-11-06T04:46:58;17.10;73.10
37782;DHT22;23621;50.878;4.584;2022-11-06T04:49:27;17.10;73.00
37782;DHT22;23621;50.878;4.584;2022-11-06T04:51:56;17.10;72.90
37782;DHT22;23621;50.878;4.584;2022-11-06T04:54:24;17.10;72.90
37782;DHT22;23621;50.878;4.584;2022-11-06T04:56:57;17.10;72.90
37782;DHT22;23621;50.878;4.584;2022-11-06T04:59:31;17.10;72.90
37782;DHT22;23621;50.878;4.584;2022-11-06T05:01:59;17.10;72.80
37782;DHT22;23621;50.878;4.584;2022-11-06T05:04:27;17.10;72.80
37782;DHT22;23621;50.878;4.584;2022-11-06T05:06:54;17.10;72.80
37782;DHT22;23621;50.878;4.584;2022-11-06T05:09:21;17.00;72.70
37782;DHT22;23621;50.878;4.584;2022-11-06T05:11:47;17.10;72.90
37782;DHT22;23621;50.878;4.584;2022-11-06T05:14:14;17.00;72.80
37782;DHT22;23621;50.878;4.584;2022-11-06T05:16:42;17.00;72.80
37782;DHT22;23621;50.878;4.584;2022-11-06T05:19:09;17.00;72.90
37782;DHT22;23621;50.878;4.584;2022-11-06T05:21:36;17.00;72.80
37782;DHT22;23621;50.878;4.584;2022-11-06T05:24:21;17.10;72.90
37782;DHT22;23621;50.878;4.584;2022-11-06T05:26:48;17.00;72.70
37782;DHT22;23621;50.878;4.584;2022-11-06T05:29:21;17.00;72.70
37782;DHT22;23621;50.878;4.584;2022-11-06T05:31:48;17.00;72.80
37782;DHT22;23621;50.878;4.584;2022-11-06T05:34:15;17.10;72.90
37782;DHT22;23621;50.878;4.584;2022-11-06T05:36:42;17.10;72.80
37782;DHT22;23621;50.878;4.584;2022-11-06T05:39:27;17.10;72.80
37782;DHT22;23621;50.878;4.584;2022-11-06T05:41:54;17.20;72.90
37782;DHT22;23621;50.878;4.584;2022-11-06T05:44:21;17.20;72.90
37782;DHT22;23621;50.878;4.584;2022-11-06T05:46:48;17.20;72.90
37782;DHT22;23621;50.878;4.584;2022-11-06T05:49:18;17.20;72.90
37782;DHT22;23621;50.878;4.584;2022-11-06T05:51:46;17.30;72.90
37782;DHT22;23621;50.878;4.584;2022-11-06T05:54:13;17.30;73.10
37782;DHT22;23621;50.878;4.584;2022-11-06T05:56:40;17.30;72.80
37782;DHT22;23621;50.878;4.584;2022-11-06T05:59:08;17.40;72.90
37782;DHT22;23621;50.878;4.584;2022-11-06T06:01:49;17.40;72.80
37782;DHT22;23621;50.878;4.584;2022-11-06T06:04:17;17.40;73.50
37782;DHT22;23621;50.878;4.584;2022-11-06T06:06:55;17.40;72.80
37782;DHT22;23621;50.878;4.584;2022-11-06T06:09:41;17.30;72.90
37782;DHT22;23621;50.878;4.584;2022-11-06T06:12:10;17.30;72.90
37782;DHT22;23621;50.878;4.584;2022-11-06T06:14:38;17.40;73.00
37782;DHT22;23621;50.878;4.584;2022-11-06T06:17:05;17.30;72.80
37782;DHT22;23621;50.878;4.584;2022-11-06T06:19:32;17.40;72.90
37782;DHT22;23621;50.878;4.584;2022-11-06T06:21:59;17.40;72.90
37782;DHT22;23621;50.878;4.584;2022-11-06T06:24:26;17.40;73.00
37782;DHT22;23621;50.878;4.584;2022-11-06T06:26:56;17.40;73.00
37782;DHT22;23621;50.878;4.584;2022-11-06T06:29:23;17.40;73.00
37782;DHT22;23621;50.878;4.584;2022-11-06T06:32:08;17.40;73.00
37782;DHT22;23621;50.878;4.584;2022-11-06T06:34:35;17.40;72.90
37782;DHT22;23621;50.878;4.584;2022-11-06T06:37:02;17.40;72.90
37782;DHT22;23621;50.878;4.584;2022-11-06T06:39:29;17.40;73.00
37782;DHT22;23621;50.878;4.584;2022-11-06T06:41:56;17.40;73.00
37782;DHT22;23621;50.878;4.584;2022-11-06T06:44:36;17.50;73.10
37782;DHT22;23621;50.878;4.584;2022-11-06T06:47:03;17.50;73.00
37782;DHT22;23621;50.878;4.584;2022-11-06T06:49:30;17.50;72.90
37782;DHT22;23621;50.878;4.584;2022-11-06T06:52:15;17.60;73.00
37782;DHT22;23621;50.878;4.584;2022-11-06T06:54:42;17.60;72.90
37782;DHT22;23621;50.878;4.584;2022-11-06T06:57:09;17.60;72.90
37782;DHT22;23621;50.878;4.584;2022-11-06T06:59:36;17.60;72.90
37782;DHT22;23621;50.878;4.584;2022-11-06T07:02:03;17.60;72.90
37782;DHT22;23621;50.878;4.584;2022-11-06T07:04:30;17.60;72.90
37782;DHT22;23621;50.878;4.584;2022-11-06T07:06:57;17.60;72.90
37782;DHT22;23621;50.878;4.584;2022-11-06T07:09:23;17.70;73.70
37782;DHT22;23621;50.878;4.584;2022-11-06T07:11:50;17.70;73.00
37782;DHT22;23621;50.878;4.584;2022-11-06T07:14:17;17.70;72.90
37782;DHT22;23621;50.878;4.584;2022-11-06T07:16:47;17.70;72.90
37782;DHT22;23621;50.878;4.584;2022-11-06T07:19:19;17.70;72.90
37782;DHT22;23621;50.878;4.584;2022-11-06T07:22:05;17.70;72.90
37782;DHT22;23621;50.878;4.584;2022-11-06T07:24:31;17.70;72.90
37782;DHT22;23621;50.878;4.584;2022-11-06T07:26:58;17.70;73.00
37782;DHT22;23621;50.878;4.584;2022-11-06T07:29:25;17.70;72.90
37782;DHT22;23621;50.878;4.584;2022-11-06T07:31:52;17.70;72.90
37782;DHT22;23621;50.878;4.584;2022-11-06T07:34:19;17.80;72.90
37782;DHT22;23621;50.878;4.584;2022-11-06T07:36:46;17.80;72.90
37782;DHT22;23621;50.878;4.584;2022-11-06T07:39:13;17.80;72.90
37782;DHT22;23621;50.878;4.584;2022-11-06T07:41:39;17.90;73.00
37782;DHT22;23621;50.878;4.584;2022-11-06T07:44:06;17.90;72.90
37782;DHT22;23621;50.878;4.584;2022-11-06T07:46:33;18.00;72.90
37782;DHT22;23621;50.878;4.584;2022-11-06T07:49:00;18.00;72.90
37782;DHT22;23621;50.878;4.584;2022-11-06T07:51:46;18.00;72.80
37782;DHT22;23621;50.878;4.584;2022-11-06T07:54:13;18.00;72.70
37782;DHT22;23621;50.878;4.584;2022-11-06T07:56:40;18.10;72.90
37782;DHT22;23621;50.878;4.584;2022-11-06T07:59:07;18.10;72.80
37782;DHT22;23621;50.878;4.584;2022-11-06T08:01:34;18.10;72.70
37782;DHT22;23621;50.878;4.584;2022-11-06T08:04:01;18.20;72.70
37782;DHT22;23621;50.878;4.584;2022-11-06T08:06:28;18.20;72.60
37782;DHT22;23621;50.878;4.584;2022-11-06T08:08:55;18.20;72.50
37782;DHT22;23621;50.878;4.584;2022-11-06T08:11:24;18.20;73.20
37782;DHT22;23621;50.878;4.584;2022-11-06T08:13:51;18.20;73.10
37782;DHT22;23621;50.878;4.584;2022-11-06T08:16:21;18.30;72.30
37782;DHT22;23621;50.878;4.584;2022-11-06T08:18:49;18.30;72.20
37782;DHT22;23621;50.878;4.584;2022-11-06T08:21:18;18.30;72.20
37782;DHT22;23621;50.878;4.584;2022-11-06T08:24:04;18.30;72.20
37782;DHT22;23621;50.878;4.584;2022-11-06T08:26:32;18.30;72.30
37782;DHT22;23621;50.878;4.584;2022-11-06T08:28:59;18.30;72.30
37782;DHT22;23621;50.878;4.584;2022-11-06T08:31:28;18.30;72.20
37782;DHT22;23621;50.878;4.584;2022-11-06T08:33:55;18.30;72.20
37782;DHT22;23621;50.878;4.584;2022-11-06T08:36:22;18.40;72.20
37782;DHT22;23621;50.878;4.584;2022-11-06T08:39:07;18.40;72.10
37782;DHT22;23621;50.878;4.584;2022-11-06T08:41:34;18.40;72.10
37782;DHT22;23621;50.878;4.584;2022-11-06T08:44:01;18.40;72.00
37782;DHT22;23621;50.878;4.584;2022-11-06T08:46:47;18.40;72.00
37782;DHT22;23621;50.878;4.584;2022-11-06T08:49:18;18.40;72.00
37782;DHT22;23621;50.878;4.584;2022-11-06T08:51:45;18.40;71.90
37782;DHT22;23621;50.878;4.584;2022-11-06T08:54:12;18.50;71.90
37782;DHT22;23621;50.878;4.584;2022-11-06T08:56:39;18.50;71.80
37782;DHT22;23621;50.878;4.584;2022-11-06T08:59:06;18.60;71.90
37782;DHT22;23621;50.878;4.584;2022-11-06T09:01:51;18.50;71.80
37782;DHT22;23621;50.878;4.584;2022-11-06T09:04:18;18.60;71.80
37782;DHT22;23621;50.878;4.584;2022-11-06T09:06:45;18.60;71.70
37782;DHT22;23621;50.878;4.584;2022-11-06T09:09:12;18.60;71.70
37782;DHT22;23621;50.878;4.584;2022-11-06T09:11:39;18.50;71.50
37782;DHT22;23621;50.878;4.584;2022-11-06T09:14:06;18.60;71.50
37782;DHT22;23621;50.878;4.584;2022-11-06T09:16:52;18.60;71.50
37782;DHT22;23621;50.878;4.584;2022-11-06T09:19:20;18.60;71.60
37782;DHT22;23621;50.878;4.584;2022-11-06T09:22:06;18.60;71.50
37782;DHT22;23621;50.878;4.584;2022-11-06T09:24:34;18.60;71.50
37782;DHT22;23621;50.878;4.584;2022-11-06T09:27:20;18.50;71.40
37782;DHT22;23621;50.878;4.584;2022-11-06T09:29:47;18.50;71.30
37782;DHT22;23621;50.878;4.584;2022-11-06T09:32:14;18.60;71.40
37782;DHT22;23621;50.878;4.584;2022-11-06T09:34:41;18.60;71.40
37782;DHT22;23621;50.878;4.584;2022-11-06T09:37:08;18.60;71.40
37782;DHT22;23621;50.878;4.584;2022-11-06T09:39:35;18.60;71.30
37782;DHT22;23621;50.878;4.584;2022-11-06T09:45:14;18.70;71.30
37782;DHT22;23621;50.878;4.584;2022-11-06T09:48:29;18.70;71.30
37782;DHT22;23621;50.878;4.584;2022-11-06T09:50:43;18.70;71.40
37782;DHT22;23621;50.878;4.584;2022-11-06T09:57:09;18.70;71.10
37782;DHT22;23621;50.878;4.584;2022-11-06T09:59:37;18.80;71.10
37782;DHT22;23621;50.878;4.584;2022-11-06T10:05:30;18.80;70.60
37782;DHT22;23621;50.878;4.584;2022-11-06T10:08:04;18.80;70.70
37782;DHT22;23621;50.878;4.584;2022-11-06T10:10:35;18.80;70.60
37782;DHT22;23621;50.878;4.584;2022-11-06T10:19:09;18.80;70.40
37782;DHT22;23621;50.878;4.584;2022-11-06T10:30:04;18.70;70.30
37782;DHT22;23621;50.878;4.584;2022-11-06T10:33:09;18.70;70.40
37782;DHT22;23621;50.878;4.584;2022-11-06T10:35:46;18.70;70.20
37782;DHT22;23621;50.878;4.584;2022-11-06T10:38:26;18.70;70.30
37782;DHT22;23621;50.878;4.584;2022-11-06T10:41:32;18.70;70.30
37782;DHT22;23621;50.878;4.584;2022-11-06T10:44:02;18.70;70.30
37782;DHT22;23621;50.878;4.584;2022-11-06T10:49:04;18.80;70.30
37782;DHT22;23621;50.878;4.584;2022-11-06T10:59:35;18.90;70.30
37782;DHT22;23621;50.878;4.584;2022-11-06T11:02:02;18.80;70.20
37782;DHT22;23621;50.878;4.584;2022-11-06T11:04:31;18.90;70.30
37782;DHT22;23621;50.878;4.584;2022-11-06T11:07:11;19.00;70.30
37782;DHT22;23621;50.878;4.584;2022-11-06T11:12:51;19.00;70.00
37782;DHT22;23621;50.878;4.584;2022-11-06T11:15:26;19.00;70.00
37782;DHT22;23621;50.878;4.584;2022-11-06T11:18:18;19.00;69.90
37782;DHT22;23621;50.878;4.584;2022-11-06T11:20:50;19.10;69.90
37782;DHT22;23621;50.878;4.584;2022-11-06T11:23:22;19.10;70.00
37782;DHT22;23621;50.878;4.584;2022-11-06T11:25:55;19.00;69.80
37782;DHT22;23621;50.878;4.584;2022-11-06T11:28:29;19.10;69.90
37782;DHT22;23621;50.878;4.584;2022-11-06T11:31:12;19.10;69.70
37782;DHT22;23621;50.878;4.584;2022-11-06T11:33:49;19.00;69.50
37782;DHT22;23621;50.878;4.584;2022-11-06T11:39:18;18.90;68.40
37782;DHT22;23621;50.878;4.584;2022-11-06T11:42:27;18.90;68.90
37782;DHT22;23621;50.878;4.584;2022-11-06T11:45:19;18.90;68.60
37782;DHT22;23621;50.878;4.584;2022-11-06T11:47:48;18.90;68.40
37782;DHT22;23621;50.878;4.584;2022-11-06T11:50:29;18.80;68.40
37782;DHT22;23621;50.878;4.584;2022-11-06T11:52:59;18.80;68.10
37782;DHT22;23621;50.878;4.584;2022-11-06T11:55:38;18.80;68.10
37782;DHT22;23621;50.878;4.584;2022-11-06T11:58:19;18.90;67.90
37782;DHT22;23621;50.878;4.584;2022-11-06T12:00:56;18.80;67.60
37782;DHT22;23621;50.878;4.584;2022-11-06T12:03:27;18.80;67.60
37782;DHT22;23621;50.878;4.584;2022-11-06T12:06:07;18.80;67.30
37782;DHT22;23621;50.878;4.584;2022-11-06T12:08:37;18.80;67.30
37782;DHT22;23621;50.878;4.584;2022-11-06T12:11:06;18.70;67.70
37782;DHT22;23621;50.878;4.584;2022-11-06T12:13:36;18.70;67.80
37782;DHT22;23621;50.878;4.584;2022-11-06T12:16:03;18.70;67.80
37782;DHT22;23621;50.878;4.584;2022-11-06T12:18:44;18.60;67.80
37782;DHT22;23621;50.878;4.584;2022-11-06T12:21:19;18.60;67.80
37782;DHT22;23621;50.878;4.584;2022-11-06T12:24:15;18.60;67.80
37782;DHT22;23621;50.878;4.584;2022-11-06T12:26:52;18.60;67.90
37782;DHT22;23621;50.878;4.584;2022-11-06T12:30:00;18.60;67.80
37782;DHT22;23621;50.878;4.584;2022-11-06T12:32:40;18.50;67.80
37782;DHT22;23621;50.878;4.584;2022-11-06T12:41:10;18.40;68.20
37782;DHT22;23621;50.878;4.584;2022-11-06T12:43:45;18.40;68.20
37782;DHT22;23621;50.878;4.584;2022-11-06T13:05:28;18.30;69.00
37782;DHT22;23621;50.878;4.584;2022-11-06T13:20:13;18.20;68.80
37782;DHT22;23621;50.878;4.584;2022-11-06T13:25:59;18.20;68.50
37782;DHT22;23621;50.878;4.584;2022-11-06T13:28:57;18.20;68.50
37782;DHT22;23621;50.878;4.584;2022-11-06T13:31:35;18.10;68.50
37782;DHT22;23621;50.878;4.584;2022-11-06T13:34:05;18.00;68.40
37782;DHT22;23621;50.878;4.584;2022-11-06T13:36:36;17.90;68.60
37782;DHT22;23621;50.878;4.584;2022-11-06T13:39:31;17.90;68.70
37782;DHT22;23621;50.878;4.584;2022-11-06T13:42:01;17.90;68.90
37782;DHT22;23621;50.878;4.584;2022-11-06T13:44:38;17.80;69.80
37782;DHT22;23621;50.878;4.584;2022-11-06T13:50:24;17.90;69.60
37782;DHT22;23621;50.878;4.584;2022-11-06T13:58:53;17.90;69.90
37782;DHT22;23621;50.878;4.584;2022-11-06T14:01:49;17.90;70.10
37782;DHT22;23621;50.878;4.584;2022-11-06T14:07:48;17.80;70.30
37782;DHT22;23621;50.878;4.584;2022-11-06T14:10:26;17.80;70.60
37782;DHT22;23621;50.878;4.584;2022-11-06T14:12:55;17.80;70.30
37782;DHT22;23621;50.878;4.584;2022-11-06T14:15:28;17.80;70.40
37782;DHT22;23621;50.878;4.584;2022-11-06T14:18:00;17.80;70.50
37782;DHT22;23621;50.878;4.584;2022-11-06T14:20:34;17.90;71.20
37782;DHT22;23621;50.878;4.584;2022-11-06T14:23:44;17.90;70.60
37782;DHT22;23621;50.878;4.584;2022-11-06T14:26:10;17.90;70.60
37782;DHT22;23621;50.878;4.584;2022-11-06T14:28:39;17.80;70.40
37782;DHT22;23621;50.878;4.584;2022-11-06T14:31:07;17.80;70.50
37782;DHT22;23621;50.878;4.584;2022-11-06T14:36:31;17.80;70.60
37782;DHT22;23621;50.878;4.584;2022-11-06T14:38:59;17.80;70.80
37782;DHT22;23621;50.878;4.584;2022-11-06T14:44:25;17.80;71.00
37782;DHT22;23621;50.878;4.584;2022-11-06T14:49:57;17.70;70.90
37782;DHT22;23621;50.878;4.584;2022-11-06T14:52:27;17.70;70.90
37782;DHT22;23621;50.878;4.584;2022-11-06T14:55:01;17.70;70.90
37782;DHT22;23621;50.878;4.584;2022-11-06T14:57:49;17.70;70.80
37782;DHT22;23621;50.878;4.584;2022-11-06T15:00:37;17.60;70.70
37782;DHT22;23621;50.878;4.584;2022-11-06T15:03:22;17.70;70.70
37782;DHT22;23621;50.878;4.584;2022-11-06T15:05:52;17.60;70.70
37782;DHT22;23621;50.878;4.584;2022-11-06T15:19:16;17.40;70.40
37782;DHT22;23621;50.878;4.584;2022-11-06T15:21:59;17.30;70.40
37782;DHT22;23621;50.878;4.584;2022-11-06T15:27:42;17.20;70.40
37782;DHT22;23621;50.878;4.584;2022-11-06T15:30:32;17.10;70.50
37782;DHT22;23621;50.878;4.584;2022-11-06T15:33:07;17.10;70.50
37782;DHT22;23621;50.878;4.584;2022-11-06T15:36:00;17.10;70.40
37782;DHT22;23621;50.878;4.584;2022-11-06T15:38:37;17.00;70.40
37782;DHT22;23621;50.878;4.584;2022-11-06T15:41:06;17.00;70.40
37782;DHT22;23621;50.878;4.584;2022-11-06T15:43:35;17.00;70.40
37782;DHT22;23621;50.878;4.584;2022-11-06T15:46:22;17.00;70.40
37782;DHT22;23621;50.878;4.584;2022-11-06T15:49:25;17.00;70.50
37782;DHT22;23621;50.878;4.584;2022-11-06T15:51:57;16.90;70.10
37782;DHT22;23621;50.878;4.584;2022-11-06T15:54:39;16.80;70.40
37782;DHT22;23621;50.878;4.584;2022-11-06T15:57:24;16.90;70.70
37782;DHT22;23621;50.878;4.584;2022-11-06T16:00:08;16.80;70.60
37782;DHT22;23621;50.878;4.584;2022-11-06T16:02:49;16.80;70.70
37782;DHT22;23621;50.878;4.584;2022-11-06T16:05:18;16.80;70.90
37782;DHT22;23621;50.878;4.584;2022-11-06T16:08:05;16.80;70.90
37782;DHT22;23621;50.878;4.584;2022-11-06T16:10:35;16.70;70.90
37782;DHT22;23621;50.878;4.584;2022-11-06T16:13:03;16.70;71.10
37782;DHT22;23621;50.878;4.584;2022-11-06T16:18:28;16.70;70.90
37782;DHT22;23621;50.878;4.584;2022-11-06T16:21:15;16.70;71.20
37782;DHT22;23621;50.878;4.584;2022-11-06T16:24:09;16.60;71.30
37782;DHT22;23621;50.878;4.584;2022-11-06T16:26:45;16.60;71.30
37782;DHT22;23621;50.878;4.584;2022-11-06T16:29:26;16.60;71.30
37782;DHT22;23621;50.878;4.584;2022-11-06T16:32:15;16.60;71.40
37782;DHT22;23621;50.878;4.584;2022-11-06T16:34:52;16.60;71.50
37782;DHT22;23621;50.878;4.584;2022-11-06T16:37:39;16.50;71.40
37782;DHT22;23621;50.878;4.584;2022-11-06T16:43:17;16.50;71.80
37782;DHT22;23621;50.878;4.584;2022-11-06T16:46:07;16.40;71.90
37782;DHT22;23621;50.878;4.584;2022-11-06T16:48:41;16.40;72.00
37782;DHT22;23621;50.878;4.584;2022-11-06T16:51:30;16.40;72.00
37782;DHT22;23621;50.878;4.584;2022-11-06T16:54:03;16.30;72.10
37782;DHT22;23621;50.878;4.584;2022-11-06T16:56:31;16.40;72.10
37782;DHT22;23621;50.878;4.584;2022-11-06T16:59:04;16.30;72.10
37782;DHT22;23621;50.878;4.584;2022-11-06T17:01:40;16.30;72.30
37782;DHT22;23621;50.878;4.584;2022-11-06T17:04:23;16.30;72.40
37782;DHT22;23621;50.878;4.584;2022-11-06T17:06:52;16.40;72.50
37782;DHT22;23621;50.878;4.584;2022-11-06T17:09:33;16.40;72.30
37782;DHT22;23621;50.878;4.584;2022-11-06T17:12:01;16.40;72.50
37782;DHT22;23621;50.878;4.584;2022-11-06T17:14:29;16.30;72.60
37782;DHT22;23621;50.878;4.584;2022-11-06T17:17:00;16.30;72.60
37782;DHT22;23621;50.878;4.584;2022-11-06T17:19:28;16.40;72.60
37782;DHT22;23621;50.878;4.584;2022-11-06T17:21:55;16.30;72.70
37782;DHT22;23621;50.878;4.584;2022-11-06T17:24:23;16.40;72.80
37782;DHT22;23621;50.878;4.584;2022-11-06T17:27:03;16.30;73.10
37782;DHT22;23621;50.878;4.584;2022-11-06T17:29:30;16.20;73.20
37782;DHT22;23621;50.878;4.584;2022-11-06T17:31:59;16.10;73.40
37782;DHT22;23621;50.878;4.584;2022-11-06T17:34:26;16.00;73.40
37782;DHT22;23621;50.878;4.584;2022-11-06T17:36:55;16.00;73.60
37782;DHT22;23621;50.878;4.584;2022-11-06T17:39:22;16.10;74.50
37782;DHT22;23621;50.878;4.584;2022-11-06T17:41:49;16.10;73.70
37782;DHT22;23621;50.878;4.584;2022-11-06T17:44:16;16.20;73.80
37782;DHT22;23621;50.878;4.584;2022-11-06T17:46:45;16.10;73.90
37782;DHT22;23621;50.878;4.584;2022-11-06T17:49:14;16.10;74.10
37782;DHT22;23621;50.878;4.584;2022-11-06T17:51:46;16.10;74.10
37782;DHT22;23621;50.878;4.584;2022-11-06T17:54:23;16.10;74.80
37782;DHT22;23621;50.878;4.584;2022-11-06T17:56:55;16.20;74.30
37782;DHT22;23621;50.878;4.584;2022-11-06T17:59:23;16.00;74.50
37782;DHT22;23621;50.878;4.584;2022-11-06T18:01:51;16.10;74.60
37782;DHT22;23621;50.878;4.584;2022-11-06T18:04:20;16.20;74.60
37782;DHT22;23621;50.878;4.584;2022-11-06T18:06:49;16.30;74.40
37782;DHT22;23621;50.878;4.584;2022-11-06T18:09:19;16.40;74.50
37782;DHT22;23621;50.878;4.584;2022-11-06T18:11:50;16.30;74.50
37782;DHT22;23621;50.878;4.584;2022-11-06T18:14:19;16.30;74.70
37782;DHT22;23621;50.878;4.584;2022-11-06T18:16:46;16.30;74.90
37782;DHT22;23621;50.878;4.584;2022-11-06T18:19:16;16.30;75.00
37782;DHT22;23621;50.878;4.584;2022-11-06T18:21:43;16.20;75.30
37782;DHT22;23621;50.878;4.584;2022-11-06T18:24:10;16.30;75.30
37782;DHT22;23621;50.878;4.584;2022-11-06T18:26:37;16.30;75.30
37782;DHT22;23621;50.878;4.584;2022-11-06T18:29:23;16.30;75.50
37782;DHT22;23621;50.878;4.584;2022-11-06T18:32:11;16.30;75.60
37782;DHT22;23621;50.878;4.584;2022-11-06T18:34:38;16.40;75.40
37782;DHT22;23621;50.878;4.584;2022-11-06T18:37:13;16.50;75.30
37782;DHT22;23621;50.878;4.584;2022-11-06T18:39:40;16.50;75.20
37782;DHT22;23621;50.878;4.584;2022-11-06T18:42:07;16.50;75.30
37782;DHT22;23621;50.878;4.584;2022-11-06T18:44:53;16.60;75.30
37782;DHT22;23621;50.878;4.584;2022-11-06T18:47:20;16.60;75.40